Time;durP1;ratioP1;P1;durP2;ratioP2;P2;SDS_P1;SDS_P2;PMS_P1;PMS_P2;Temp;Humidity;BMP_temperature;BMP_pressure;BME280_temperature;BME280_humidity;BME280_pressure;Samples;Min_cycle;Max_cycle;Signal;HPM_P1;HPM_P2
2023/07/20 00:02:12;;;;;;;;;7.67;4.00;;;;;-147.70;100.00;61350.09;5077057;28;46733;-66
2023/07/20 00:04:37;;;;;;;;;6.33;3.33;;;;;-147.70;100.00;61350.09;5077251;28;45333;-67
2023/07/20 00:07:03;;;;;;;;;6.33;4.33;;;;;-147.70;100.00;61350.09;5077330;28;45337;-66
2023/07/20 00:09:29;;;;;;;;;7.33;5.33;;;;;-147.70;100.00;61350.09;5077473;28;45539;-66
2023/07/20 00:11:54;;;;;;;;;5.33;4.00;;;;;-147.70;100.00;61350.09;5077166;28;45262;-66
2023/07/20 00:14:20;;;;;;;;;7.67;6.00;;;;;-147.70;100.00;61350.09;5076776;28;45451;-66
2023/07/20 00:16:46;;;;;;;;;7.67;4.00;;;;;-147.70;100.00;61350.09;5077439;28;45405;-66
2023/07/20 00:19:16;;;;;;;;;4.67;4.00;;;;;-147.70;100.00;61350.09;5077363;28;45461;-66
2023/07/20 00:21:42;;;;;;;;;11.33;5.33;;;;;-147.70;100.00;61350.09;5076848;28;46160;-66
2023/07/20 00:24:08;;;;;;;;;6.67;6.00;;;;;-147.70;100.00;61350.09;5077000;28;45298;-66
2023/07/20 00:26:33;;;;;;;;;8.33;7.00;;;;;-147.70;100.00;61350.09;5076767;28;45296;-66
2023/07/20 00:28:59;;;;;;;;;9.00;7.33;;;;;-147.70;100.00;61350.09;5077190;28;45388;-67
2023/07/20 00:31:24;;;;;;;;;5.00;5.00;;;;;-147.70;100.00;61350.09;5076920;28;46386;-66
2023/07/20 00:33:49;;;;;;;;;6.33;4.33;;;;;-147.70;100.00;61350.09;5076914;28;45214;-66
2023/07/20 00:36:15;;;;;;;;;5.00;5.00;;;;;-147.70;100.00;61350.09;5078100;28;45477;-66
2023/07/20 00:38:40;;;;;;;;;9.67;7.00;;;;;-147.70;100.00;61350.09;5080545;28;45422;-66
2023/07/20 00:41:06;;;;;;;;;8.67;6.67;;;;;-147.70;100.00;61350.09;5080113;28;46435;-66
2023/07/20 00:43:31;;;;;;;;;10.67;7.67;;;;;-147.70;100.00;61350.09;5080283;28;45324;-66
2023/07/20 00:45:57;;;;;;;;;5.00;5.00;;;;;-147.70;100.00;61350.09;5080352;28;45360;-67
2023/07/20 00:48:23;;;;;;;;;6.00;6.00;;;;;-147.70;100.00;61350.09;5080428;28;45293;-66
2023/07/20 00:50:48;;;;;;;;;11.67;6.00;;;;;-147.70;100.00;61350.09;5077330;28;46356;-67
2023/07/20 00:53:14;;;;;;;;;11.33;8.00;;;;;-147.70;100.00;61350.09;5068556;28;45486;-67
2023/07/20 00:55:40;;;;;;;;;16.00;7.67;;;;;-147.70;100.00;61350.09;5059921;28;45333;-67
2023/07/20 00:58:05;;;;;;;;;5.00;5.00;;;;;-147.70;100.00;61350.09;5060052;28;45523;-68
2023/07/20 01:00:31;;;;;;;;;6.33;6.00;;;;;-147.70;100.00;61350.09;5065341;28;46254;-68
2023/07/20 01:02:56;;;;;;;;;7.67;7.00;;;;;-147.70;100.00;61350.09;5072201;28;45466;-68
2023/07/20 01:05:39;;;;;;;;;12.33;8.00;;;;;-147.70;100.00;61350.09;5079708;28;45298;-68
2023/07/20 01:08:21;;;;;;;;;6.00;6.00;;;;;-147.70;100.00;61350.09;5061930;28;45358;-68
2023/07/20 01:11:03;;;;;;;;;7.67;6.00;;;;;-147.70;100.00;61350.09;5079920;28;45478;-68
2023/07/20 01:13:29;;;;;;;;;7.33;5.00;;;;;-147.70;100.00;61350.09;5079752;28;45466;-68
2023/07/20 01:16:00;;;;;;;;;11.67;8.67;;;;;-147.70;100.00;61350.09;5079583;28;45262;-68
2023/07/20 01:18:26;;;;;;;;;7.33;7.00;;;;;-147.70;100.00;61350.09;5073681;28;45239;-68
2023/07/20 01:20:58;;;;;;;;;12.00;9.33;;;;;-147.70;100.00;61350.09;5076570;28;46295;-68
2023/07/20 01:23:26;;;;;;;;;7.00;7.00;;;;;-147.70;100.00;61350.09;5068048;28;45444;-68
2023/07/20 01:26:09;;;;;;;;;13.00;8.67;;;;;-147.70;100.00;61350.09;5066536;28;45498;-68
2023/07/20 01:28:37;;;;;;;;;12.00;6.67;;;;;-147.70;100.00;61350.09;5066605;28;45486;-66
2023/07/20 01:31:24;;;;;;;;;8.00;7.67;;;;;-147.70;100.00;61350.09;5069400;28;45774;-67
2023/07/20 01:33:56;;;;;;;;;8.67;7.00;;;;;-147.70;100.00;61350.09;5065111;28;45414;-67
2023/07/20 01:36:24;;;;;;;;;8.00;8.00;;;;;-147.70;100.00;61350.09;5071940;28;45381;-67
2023/07/20 01:38:52;;;;;;;;;9.00;7.67;;;;;-147.70;100.00;61350.09;5058688;28;45465;-67
2023/07/20 01:41:18;;;;;;;;;12.67;8.33;;;;;-147.70;100.00;61350.09;5064724;28;45509;-67
2023/07/20 01:43:43;;;;;;;;;11.33;7.67;;;;;-147.70;100.00;61350.09;5070764;28;45490;-67
2023/07/20 01:46:09;;;;;;;;;13.67;10.00;;;;;-147.70;100.00;61350.09;5076922;28;45837;-68
2023/07/20 01:48:34;;;;;;;;;12.00;8.33;;;;;-147.70;100.00;61350.09;5077398;28;45444;-68
2023/07/20 01:51:00;;;;;;;;;11.00;7.00;;;;;-147.70;100.00;61350.09;5076537;28;46228;-68
2023/07/20 01:53:25;;;;;;;;;11.00;9.33;;;;;-147.70;100.00;61350.09;5062158;28;45321;-68
2023/07/20 01:55:54;;;;;;;;;10.33;7.67;;;;;-147.70;100.00;61350.09;5059879;28;45495;-68
2023/07/20 01:58:19;;;;;;;;;13.67;8.00;;;;;-147.70;100.00;61350.09;5061108;28;45493;-68
2023/07/20 02:00:44;;;;;;;;;8.00;8.00;;;;;-147.70;100.00;61350.09;5065121;28;46159;-68
2023/07/20 02:03:11;;;;;;;;;11.00;10.33;;;;;-147.70;100.00;61350.09;5069369;28;45357;-68
2023/07/20 02:05:37;;;;;;;;;11.33;9.33;;;;;-147.70;100.00;61350.09;5068774;28;45468;-68
2023/07/20 02:08:02;;;;;;;;;9.33;8.00;;;;;-147.70;100.00;61350.09;5078845;28;45247;-68
2023/07/20 02:10:28;;;;;;;;;14.33;10.00;;;;;-147.70;100.00;61350.09;5078740;28;45490;-68
2023/07/20 02:12:53;;;;;;;;;10.33;9.67;;;;;-147.70;100.00;61350.09;5078751;28;45420;-68
2023/07/20 02:15:19;;;;;;;;;10.00;7.33;;;;;-147.70;100.00;61350.09;5078521;28;45414;-68
2023/07/20 02:17:44;;;;;;;;;12.67;9.67;;;;;-147.70;100.00;61350.09;5069043;28;45377;-68
2023/07/20 02:20:10;;;;;;;;;11.00;10.00;;;;;-147.70;100.00;61350.09;5074317;28;45404;-68
2023/07/20 02:22:39;;;;;;;;;12.67;12.67;;;;;-147.70;100.00;61350.09;5076391;28;45373;-68
2023/07/20 02:25:06;;;;;;;;;12.67;10.33;;;;;-147.70;100.00;61350.09;5060036;28;45362;-68
2023/07/20 02:27:33;;;;;;;;;12.33;11.33;;;;;-147.70;100.00;61350.09;5078027;28;45368;-68
2023/07/20 02:29:58;;;;;;;;;15.00;11.67;;;;;-147.70;100.00;61350.09;5077918;28;46381;-68
2023/07/20 02:32:23;;;;;;;;;11.67;11.33;;;;;-147.70;100.00;61350.09;5077874;28;45261;-68
2023/07/20 02:34:49;;;;;;;;;16.00;12.00;;;;;-147.70;100.00;61350.09;5077556;28;45386;-68
2023/07/20 02:37:14;;;;;;;;;14.67;11.67;;;;;-147.70;100.00;61350.09;5076405;28;45520;-68
2023/07/20 02:39:40;;;;;;;;;11.67;10.00;;;;;-147.70;100.00;61350.09;5076187;28;45439;-68
2023/07/20 02:42:05;;;;;;;;;30.00;26.67;;;;;-147.70;100.00;61350.09;5077554;28;45558;-68
2023/07/20 02:44:31;;;;;;;;;15.33;12.33;;;;;-147.70;100.00;61350.09;5077792;28;45285;-68
2023/07/20 02:46:56;;;;;;;;;13.00;10.67;;;;;-147.70;100.00;61350.09;5076916;28;45518;-68
2023/07/20 02:49:21;;;;;;;;;14.67;10.67;;;;;-147.70;100.00;61350.09;5077796;28;46338;-68
2023/07/20 02:51:47;;;;;;;;;17.67;10.33;;;;;-147.70;100.00;61350.09;5077328;28;45368;-68
2023/07/20 02:54:12;;;;;;;;;11.67;10.00;;;;;-147.70;100.00;61350.09;5076759;28;45520;-68
2023/07/20 02:56:37;;;;;;;;;12.00;9.67;;;;;-147.70;100.00;61350.09;5076667;28;45554;-68
2023/07/20 02:59:03;;;;;;;;;13.67;9.67;;;;;-147.70;100.00;61350.09;5076567;28;46514;-68
2023/07/20 03:01:29;;;;;;;;;13.67;11.00;;;;;-147.70;100.00;61350.09;5076067;28;45480;-68
2023/07/20 03:03:55;;;;;;;;;8.67;8.00;;;;;-147.70;100.00;61350.09;5059415;28;45694;-68
2023/07/20 03:06:20;;;;;;;;;15.00;11.67;;;;;-147.70;100.00;61350.09;5077327;28;45670;-68
2023/07/20 03:08:48;;;;;;;;;12.00;10.67;;;;;-147.70;100.00;61350.09;5077084;28;45745;-68
2023/07/20 03:11:15;;;;;;;;;14.00;10.00;;;;;-147.70;100.00;61350.09;5076998;28;45474;-68
2023/07/20 03:13:42;;;;;;;;;13.33;8.00;;;;;-147.70;100.00;61350.09;5076322;28;45485;-68
2023/07/20 03:16:11;;;;;;;;;9.00;9.00;;;;;-147.70;100.00;61350.09;5075474;28;45316;-68
2023/07/20 03:18:40;;;;;;;;;8.00;7.00;;;;;-147.70;100.00;61350.09;5077074;28;46682;-68
2023/07/20 03:21:07;;;;;;;;;25.33;22.67;;;;;-147.70;100.00;61350.09;5065858;27;45438;-68
2023/07/20 03:23:32;;;;;;;;;21.33;18.00;;;;;-147.70;100.00;61350.09;5062404;28;45222;-68
2023/07/20 03:25:58;;;;;;;;;12.67;11.33;;;;;-147.70;100.00;61350.09;5071065;28;45291;-68
2023/07/20 03:28:23;;;;;;;;;15.00;11.67;;;;;-147.70;100.00;61350.09;5059568;28;46523;-68
2023/07/20 03:30:58;;;;;;;;;13.00;13.00;;;;;-147.70;100.00;61350.09;5056289;28;45369;-68
2023/07/20 03:33:25;;;;;;;;;7.67;5.67;;;;;-147.70;100.00;61350.09;5059234;28;45552;-68
2023/07/20 03:35:51;;;;;;;;;9.67;9.00;;;;;-147.70;100.00;61350.09;5061930;28;45484;-68
2023/07/20 03:38:16;;;;;;;;;9.67;9.33;;;;;-147.70;100.00;61350.09;5072657;28;45423;-68
2023/07/20 03:40:50;;;;;;;;;11.33;9.33;;;;;-147.70;100.00;61350.09;5072397;28;45488;-68
2023/07/20 03:43:15;;;;;;;;;7.33;7.33;;;;;-147.70;100.00;61350.09;5056989;28;45388;-68
2023/07/20 03:45:40;;;;;;;;;14.33;14.00;;;;;-147.70;100.00;61350.09;5069986;28;45487;-68
2023/07/20 03:48:06;;;;;;;;;16.33;10.33;;;;;-147.70;100.00;61350.09;5070240;28;45463;-68
2023/07/20 03:50:32;;;;;;;;;11.67;8.33;;;;;-147.70;100.00;61350.09;5070394;28;45295;-68
2023/07/20 03:52:57;;;;;;;;;11.67;10.67;;;;;-147.70;100.00;61350.09;5065278;28;45446;-68
2023/07/20 03:55:23;;;;;;;;;14.00;11.00;;;;;-147.70;100.00;61350.09;5065973;28;45481;-68
2023/07/20 03:57:50;;;;;;;;;12.33;11.00;;;;;-147.70;100.00;61350.09;5063297;28;45380;-68
2023/07/20 04:00:16;;;;;;;;;18.67;13.67;;;;;-147.70;100.00;61350.09;5071513;28;45679;-68
2023/07/20 04:02:42;;;;;;;;;15.33;14.00;;;;;-147.70;100.00;61350.09;5071058;28;45303;-68
2023/07/20 04:05:07;;;;;;;;;10.00;8.67;;;;;-147.70;100.00;61350.09;5063224;28;45527;-68
2023/07/20 04:07:32;;;;;;;;;14.33;10.67;;;;;-147.70;100.00;61350.09;5074223;28;46551;-68
2023/07/20 04:09:58;;;;;;;;;18.67;16.33;;;;;-147.70;100.00;61350.09;5074731;28;45495;-68
2023/07/20 04:12:23;;;;;;;;;18.00;12.00;;;;;-147.70;100.00;61350.09;5078956;28;45371;-68
2023/07/20 04:14:48;;;;;;;;;12.33;10.67;;;;;-147.70;100.00;61350.09;5070632;28;45422;-68
2023/07/20 04:17:14;;;;;;;;;15.33;13.00;;;;;-147.70;100.00;61350.09;5058840;28;47625;-68
2023/07/20 04:19:39;;;;;;;;;19.67;17.00;;;;;-147.70;100.00;61350.09;5078375;28;45363;-68
2023/07/20 04:22:04;;;;;;;;;18.67;14.67;;;;;-147.70;100.00;61350.09;5067194;28;46840;-68
2023/07/20 04:24:30;;;;;;;;;13.67;9.33;;;;;-147.70;100.00;61350.09;5061533;28;45461;-68
2023/07/20 04:26:55;;;;;;;;;10.67;7.33;;;;;-147.70;100.00;61350.09;5078427;28;46326;-68
2023/07/20 04:29:20;;;;;;;;;19.67;11.67;;;;;-147.70;100.00;61350.09;5079630;28;45380;-68
2023/07/20 04:31:45;;;;;;;;;14.00;11.67;;;;;-147.70;100.00;61350.09;5079721;28;45393;-68
2023/07/20 04:34:11;;;;;;;;;13.67;10.33;;;;;-147.70;100.00;61350.09;5079927;28;45440;-65
2023/07/20 04:36:36;;;;;;;;;11.33;11.00;;;;;-147.70;100.00;61350.09;5079685;28;46520;-65
2023/07/20 04:39:03;;;;;;;;;10.67;9.67;;;;;-147.70;100.00;61350.09;5079908;28;45341;-66
2023/07/20 04:41:28;;;;;;;;;12.67;11.00;;;;;-147.70;100.00;61350.09;5079847;28;45308;-65
2023/07/20 04:43:53;;;;;;;;;12.33;12.33;;;;;-147.70;100.00;61350.09;5079537;28;45523;-67
2023/07/20 04:46:21;;;;;;;;;19.33;17.67;;;;;-147.70;100.00;61350.09;5079501;28;45600;-67
2023/07/20 04:48:47;;;;;;;;;15.33;13.00;;;;;-147.70;100.00;61350.09;5079263;28;45467;-67
2023/07/20 04:51:13;;;;;;;;;52.00;37.00;;;;;-147.70;100.00;61350.09;5061977;28;45454;-67
2023/07/20 04:53:38;;;;;;;;;12.33;11.33;;;;;-147.70;100.00;61350.09;5079464;28;45413;-67
2023/07/20 04:56:03;;;;;;;;;16.33;11.33;;;;;-147.70;100.00;61350.09;5079670;28;45479;-67
2023/07/20 04:58:29;;;;;;;;;14.33;10.67;;;;;-147.70;100.00;61350.09;5079350;28;45341;-67
2023/07/20 05:00:54;;;;;;;;;24.67;20.33;;;;;-147.70;100.00;61350.09;5078972;28;45447;-67
2023/07/20 05:03:20;;;;;;;;;10.67;6.00;;;;;-147.70;100.00;61350.09;5079916;28;45728;-67
2023/07/20 05:05:47;;;;;;;;;18.33;14.00;;;;;-147.70;100.00;61350.09;5079076;28;46183;-67
2023/07/20 05:08:12;;;;;;;;;21.33;18.00;;;;;-147.70;100.00;61350.09;5078397;28;45435;-68
2023/07/20 05:10:38;;;;;;;;;19.00;16.67;;;;;-147.70;100.00;61350.09;5079279;28;45408;-68
2023/07/20 05:13:03;;;;;;;;;13.33;12.67;;;;;-147.70;100.00;61350.09;5079295;28;45415;-67
2023/07/20 05:15:28;;;;;;;;;15.33;13.00;;;;;-147.70;100.00;61350.09;5078794;28;46365;-67
2023/07/20 05:17:54;;;;;;;;;33.33;29.00;;;;;-147.70;100.00;61350.09;5078993;28;45463;-67
2023/07/20 05:20:20;;;;;;;;;18.67;13.33;;;;;-147.70;100.00;61350.09;5079335;28;45621;-68
2023/07/20 05:22:45;;;;;;;;;14.33;12.33;;;;;-147.70;100.00;61350.09;5077868;28;45484;-67
2023/07/20 05:25:11;;;;;;;;;14.67;13.00;;;;;-147.70;100.00;61350.09;5078508;28;45559;-68
2023/07/20 05:27:37;;;;;;;;;10.00;9.00;;;;;-147.70;100.00;61350.09;5078143;28;45294;-68
2023/07/20 05:30:03;;;;;;;;;19.00;15.00;;;;;-147.70;100.00;61350.09;5078550;28;45460;-68
2023/07/20 05:32:29;;;;;;;;;18.00;14.50;;;;;-147.70;100.00;61350.09;5078750;28;45298;-68
2023/07/20 05:34:54;;;;;;;;;23.00;16.00;;;;;-147.70;100.00;61350.09;5068238;28;45890;-67
2023/07/20 05:37:20;;;;;;;;;18.33;14.33;;;;;-147.70;100.00;61350.09;5064061;28;45416;-68
2023/07/20 05:39:46;;;;;;;;;18.33;12.33;;;;;-147.70;100.00;61350.09;5070759;28;45373;-67
2023/07/20 05:42:11;;;;;;;;;23.00;16.50;;;;;-147.70;100.00;61350.09;5075579;28;45537;-67
2023/07/20 05:44:36;;;;;;;;;27.00;23.67;;;;;-147.70;100.00;61350.09;5071692;28;46459;-67
2023/07/20 05:47:02;;;;;;;;;17.67;13.67;;;;;-147.70;100.00;61350.09;5064310;28;45459;-68
2023/07/20 05:49:28;;;;;;;;;21.33;17.67;;;;;-147.70;100.00;61350.09;5072230;28;45507;-67
2023/07/20 05:51:55;;;;;;;;;20.33;16.67;;;;;-147.70;100.00;61350.09;5060276;28;45446;-67
2023/07/20 05:54:21;;;;;;;;;16.67;15.67;;;;;-147.70;100.00;61350.09;5078095;28;46458;-67
2023/07/20 05:56:46;;;;;;;;;21.00;17.33;;;;;-147.70;100.00;61350.09;5078055;28;45487;-68
2023/07/20 05:59:12;;;;;;;;;17.00;15.00;;;;;-147.70;100.00;61350.09;5078703;28;45348;-68
2023/07/20 06:01:37;;;;;;;;;16.33;15.33;;;;;-147.70;100.00;61350.09;5068354;28;45227;-68
2023/07/20 06:04:03;;;;;;;;;24.67;18.00;;;;;-147.70;100.00;61350.09;5066748;28;45777;-68
2023/07/20 06:06:29;;;;;;;;;22.00;15.33;;;;;-147.70;100.00;61350.09;5064519;28;45408;-68
2023/07/20 06:08:54;;;;;;;;;20.67;15.33;;;;;-147.70;100.00;61350.09;5077605;28;45308;-68
2023/07/20 06:11:20;;;;;;;;;23.67;16.33;;;;;-147.70;100.00;61350.09;5062494;28;45274;-67
2023/07/20 06:13:45;;;;;;;;;21.00;17.33;;;;;-147.70;100.00;61350.09;5074989;28;45656;-67
2023/07/20 06:16:10;;;;;;;;;28.67;21.00;;;;;-147.70;100.00;61350.09;5058037;28;45341;-67
2023/07/20 06:18:36;;;;;;;;;20.00;13.67;;;;;-147.70;100.00;61350.09;5059462;28;45464;-67
2023/07/20 06:21:01;;;;;;;;;21.67;21.33;;;;;-147.70;100.00;61350.09;5068720;28;45514;-67
2023/07/20 06:23:27;;;;;;;;;23.00;16.00;;;;;-147.70;100.00;61350.09;5070742;28;46106;-68
2023/07/20 06:25:55;;;;;;;;;22.67;15.33;;;;;-147.70;100.00;61350.09;5067215;28;45506;-68
2023/07/20 06:28:20;;;;;;;;;27.67;21.67;;;;;-147.70;100.00;61350.09;5057906;28;45428;-68
2023/07/20 06:30:46;;;;;;;;;22.00;20.33;;;;;-147.70;100.00;61350.09;5066548;28;45390;-64
2023/07/20 06:33:11;;;;;;;;;23.67;18.00;;;;;-147.70;100.00;61350.09;5064983;28;45605;-66
2023/07/20 06:35:37;;;;;;;;;31.67;24.67;;;;;-147.70;100.00;61350.09;5067137;28;45789;-67
2023/07/20 06:38:03;;;;;;;;;21.67;18.67;;;;;-147.70;100.00;61350.09;5068768;28;45394;-64
2023/07/20 06:40:30;;;;;;;;;25.00;17.00;;;;;-147.70;100.00;61350.09;5071726;28;45468;-65
2023/07/20 06:42:55;;;;;;;;;20.00;18.00;;;;;-147.70;100.00;61350.09;5059519;28;46555;-67
2023/07/20 06:45:21;;;;;;;;;24.67;21.33;;;;;-147.70;100.00;61350.09;5074518;28;45350;-66
2023/07/20 06:47:46;;;;;;;;;24.00;16.33;;;;;-147.70;100.00;61350.09;5074729;28;45388;-66
2023/07/20 06:50:12;;;;;;;;;24.00;19.33;;;;;-147.70;100.00;61350.09;5067556;28;45268;-66
2023/07/20 06:52:37;;;;;;;;;29.33;25.33;;;;;-147.70;100.00;61350.09;5059912;28;45605;-68
2023/07/20 06:55:03;;;;;;;;;26.67;22.00;;;;;-147.70;100.00;61350.09;5065264;28;45433;-68
2023/07/20 06:57:29;;;;;;;;;21.00;15.67;;;;;-147.70;100.00;61350.09;5067230;28;45484;-67
2023/07/20 06:59:54;;;;;;;;;20.00;16.33;;;;;-147.70;100.00;61350.09;5069876;27;45336;-67
2023/07/20 07:02:19;;;;;;;;;23.33;20.00;;;;;-147.70;100.00;61350.09;5066902;27;46585;-66
2023/07/20 07:04:46;;;;;;;;;25.50;19.00;;;;;-147.70;100.00;61350.09;5074439;28;45377;-66
2023/07/20 07:07:14;;;;;;;;;23.00;21.00;;;;;-147.70;100.00;61350.09;5075310;28;45780;-67
2023/07/20 07:09:39;;;;;;;;;20.33;17.67;;;;;-147.70;100.00;61350.09;5075013;28;45482;-67
2023/07/20 07:12:05;;;;;;;;;22.00;17.67;;;;;-147.70;100.00;61350.09;5073949;27;46014;-68
2023/07/20 07:14:31;;;;;;;;;21.00;18.67;;;;;-147.70;100.00;61350.09;5064457;28;45542;-66
2023/07/20 07:16:56;;;;;;;;;16.00;15.67;;;;;-147.70;100.00;61350.09;5069941;28;45730;-67
2023/07/20 07:19:21;;;;;;;;;19.67;16.67;;;;;-147.70;100.00;61350.09;5070595;28;45457;-66
2023/07/20 07:21:47;;;;;;;;;24.67;21.33;;;;;-147.70;100.00;61350.09;5063092;28;46071;-72
2023/07/20 07:24:12;;;;;;;;;22.00;18.00;;;;;-147.70;100.00;61350.09;5068999;28;45425;-70
2023/07/20 07:26:38;;;;;;;;;19.67;17.00;;;;;-147.70;100.00;61350.09;5073662;28;45459;-67
2023/07/20 07:29:03;;;;;;;;;17.00;15.00;;;;;-147.70;100.00;61350.09;5076239;28;45230;-66
2023/07/20 07:31:30;;;;;;;;;20.00;13.33;;;;;-147.70;100.00;61350.09;5066604;28;46567;-67
2023/07/20 07:33:56;;;;;;;;;17.67;17.67;;;;;-147.70;100.00;61350.09;5064207;28;45468;-66
2023/07/20 07:36:21;;;;;;;;;22.33;18.00;;;;;-147.70;100.00;61350.09;5062633;28;45482;-66
2023/07/20 07:38:47;;;;;;;;;15.67;15.67;;;;;-147.70;100.00;61350.09;5065655;28;45312;-66
2023/07/20 07:41:12;;;;;;;;;22.33;18.67;;;;;-147.70;100.00;61350.09;5075388;28;46901;-69
2023/07/20 07:43:38;;;;;;;;;15.67;15.67;;;;;-147.70;100.00;61350.09;5075207;28;45476;-70
2023/07/20 07:46:04;;;;;;;;;18.33;16.67;;;;;-147.70;100.00;61350.09;5070924;28;45382;-69
2023/07/20 07:48:29;;;;;;;;;20.00;17.00;;;;;-147.70;100.00;61350.09;5078125;28;45578;-68
2023/07/20 07:50:54;;;;;;;;;29.33;27.67;;;;;-147.70;100.00;61350.09;5079549;28;46317;-69
2023/07/20 07:53:20;;;;;;;;;17.33;14.33;;;;;-147.70;100.00;61350.09;5082308;28;45505;-68
2023/07/20 07:55:48;;;;;;;;;34.67;27.67;;;;;-147.70;100.00;61350.09;5079681;28;45537;-69
2023/07/20 07:58:13;;;;;;;;;19.00;16.67;;;;;-147.70;100.00;61350.09;5081768;28;45614;-68
2023/07/20 08:00:39;;;;;;;;;18.33;17.33;;;;;-147.70;100.00;61350.09;5079857;28;46046;-71
2023/07/20 08:03:07;;;;;;;;;22.67;17.67;;;;;-147.70;100.00;61350.09;5068471;28;45606;-72
2023/07/20 08:05:33;;;;;;;;;20.67;16.33;;;;;-147.70;100.00;61350.09;5068697;28;45539;-67
2023/07/20 08:07:58;;;;;;;;;19.33;16.67;;;;;-147.70;100.00;61350.09;5073773;28;45279;-67
2023/07/20 08:10:23;;;;;;;;;21.00;17.67;;;;;-147.70;100.00;61350.09;5074823;28;46123;-68
2023/07/20 08:12:49;;;;;;;;;16.00;16.00;;;;;-147.70;100.00;61350.09;5076260;28;45415;-67
2023/07/20 08:15:14;;;;;;;;;19.33;16.00;;;;;-147.70;100.00;61350.09;5065625;28;45391;-63
2023/07/20 08:17:42;;;;;;;;;16.00;14.33;;;;;-147.70;100.00;61350.09;5069168;28;45439;-64
2023/07/20 08:20:11;;;;;;;;;16.00;13.33;;;;;-147.70;100.00;61350.09;5064218;28;46520;-64
2023/07/20 08:22:36;;;;;;;;;37.33;34.67;;;;;-147.70;100.00;61350.09;5062289;28;45531;-65
2023/07/20 08:25:01;;;;;;;;;15.00;11.67;;;;;-147.70;100.00;61350.09;5081729;28;45416;-67
2023/07/20 08:27:26;;;;;;;;;8.67;8.67;;;;;-147.70;100.00;61350.09;5082100;28;45779;-66
2023/07/20 08:29:52;;;;;;;;;11.00;8.00;;;;;-147.70;100.00;61350.09;5078899;28;46304;-65
2023/07/20 08:32:17;;;;;;;;;8.00;8.00;;;;;-147.70;100.00;61350.09;5079491;28;45360;-66
2023/07/20 08:34:42;;;;;;;;;7.00;6.00;;;;;-147.70;100.00;61350.09;5068872;28;45592;-66
2023/07/20 08:37:09;;;;;;;;;8.00;8.00;;;;;-147.70;100.00;61350.09;5070234;28;45472;-66
2023/07/20 08:39:35;;;;;;;;;9.00;9.00;;;;;-147.70;100.00;61350.09;5072208;28;45841;-66
2023/07/20 08:42:04;;;;;;;;;6.67;6.00;;;;;-147.70;100.00;61350.09;5072999;28;45434;-66
2023/07/20 08:44:31;;;;;;;;;6.33;6.00;;;;;-147.70;100.00;61350.09;5064383;28;45476;-66
2023/07/20 08:46:57;;;;;;;;;9.00;7.67;;;;;-147.70;100.00;61350.09;5071780;28;45568;-66
2023/07/20 08:49:23;;;;;;;;;8.33;8.33;;;;;-147.70;100.00;61350.09;5073820;28;45631;-66
2023/07/20 08:51:48;;;;;;;;;13.00;9.33;;;;;-147.70;100.00;61350.09;5078701;28;45753;-66
2023/07/20 08:54:15;;;;;;;;;8.67;8.00;;;;;-147.70;100.00;61350.09;5079638;28;46202;-67
2023/07/20 08:56:42;;;;;;;;;9.00;9.00;;;;;-147.70;100.00;61350.09;5071734;28;46019;-67
2023/07/20 08:59:15;;;;;;;;;10.33;7.00;;;;;-147.70;100.00;61350.09;5066792;28;45539;-67
2023/07/20 09:01:41;;;;;;;;;8.33;8.00;;;;;-147.70;100.00;61350.09;5078123;27;45439;-66
2023/07/20 09:04:06;;;;;;;;;8.00;6.67;;;;;-147.70;100.00;61350.09;5077766;28;45504;-67
2023/07/20 09:06:32;;;;;;;;;8.00;8.00;;;;;-147.70;100.00;61350.09;5077914;28;45505;-66
2023/07/20 09:08:57;;;;;;;;;6.33;6.00;;;;;-147.70;100.00;61350.09;5075765;28;46478;-66
2023/07/20 09:11:23;;;;;;;;;9.33;8.00;;;;;-147.70;100.00;61350.09;5070433;28;45586;-66
2023/07/20 09:14:02;;;;;;;;;8.00;7.00;;;;;-147.70;100.00;61350.09;5067370;28;45440;-66
2023/07/20 09:16:28;;;;;;;;;9.67;8.33;;;;;-147.70;100.00;61350.09;5078229;28;45433;-67
2023/07/20 09:18:53;;;;;;;;;10.00;9.67;;;;;-147.70;100.00;61350.09;5070676;27;46803;-67
2023/07/20 09:21:19;;;;;;;;;10.67;10.33;;;;;-147.70;100.00;61350.09;5068607;28;45509;-67
2023/07/20 09:23:44;;;;;;;;;16.67;13.33;;;;;-147.70;100.00;61350.09;5075635;28;45439;-67
2023/07/20 09:26:12;;;;;;;;;33.33;31.33;;;;;-147.70;100.00;61350.09;5068850;28;45397;-68
2023/07/20 09:28:57;;;;;;;;;9.33;7.00;;;;;-147.70;100.00;61350.09;5072868;28;45513;-67
2023/07/20 09:31:23;;;;;;;;;13.33;10.00;;;;;-147.70;100.00;61350.09;5068778;28;45353;-68
2023/07/20 09:33:49;;;;;;;;;7.33;7.33;;;;;-147.70;100.00;61350.09;5071061;28;45451;-67
2023/07/20 09:36:18;;;;;;;;;6.67;6.67;;;;;-147.70;100.00;61350.09;5062991;28;45357;-68
2023/07/20 09:38:44;;;;;;;;;4.67;4.67;;;;;-147.70;100.00;61350.09;5064682;28;45543;-66
2023/07/20 09:41:15;;;;;;;;;8.00;8.00;;;;;-147.70;100.00;61350.09;5067883;28;45447;-66
2023/07/20 09:43:41;;;;;;;;;8.00;7.00;;;;;-147.70;100.00;61350.09;5071303;28;45474;-66
2023/07/20 09:46:07;;;;;;;;;4.67;4.67;;;;;-147.70;100.00;61350.09;5069095;28;46361;-66
2023/07/20 09:48:32;;;;;;;;;6.00;4.67;;;;;-147.70;100.00;61350.09;5050232;28;46740;-67
2023/07/20 09:50:58;;;;;;;;;8.00;5.00;;;;;-147.70;100.00;61350.09;5076805;28;46838;-68
2023/07/20 09:53:25;;;;;;;;;7.00;5.33;;;;;-147.70;100.00;61350.09;5068477;28;45466;-67
2023/07/20 09:55:52;;;;;;;;;17.00;8.00;;;;;-147.70;100.00;61350.09;5070845;28;45495;-67
2023/07/20 09:58:18;;;;;;;;;8.00;5.33;;;;;-147.70;100.00;61350.09;5068818;28;45469;-67
2023/07/20 10:00:46;;;;;;;;;12.33;7.00;;;;;-147.70;100.00;61350.09;5067789;28;45447;-67
2023/07/20 10:03:27;;;;;;;;;10.00;9.00;;;;;-147.70;100.00;61350.09;5071411;28;45349;-67
2023/07/20 10:06:10;;;;;;;;;17.00;14.00;;;;;-147.70;100.00;61350.09;5068692;27;45426;-68
2023/07/20 10:08:41;;;;;;;;;15.00;13.33;;;;;-147.70;100.00;61350.09;5065164;28;45453;-67
2023/07/20 10:11:08;;;;;;;;;15.33;14.67;;;;;-147.70;100.00;61350.09;5076963;28;45236;-67
2023/07/20 10:13:38;;;;;;;;;15.33;11.67;;;;;-147.70;100.00;61350.09;5076995;28;45717;-68
2023/07/20 10:16:09;;;;;;;;;19.00;15.67;;;;;-147.70;100.00;61350.09;5076614;28;45328;-65
2023/07/20 10:18:49;;;;;;;;;13.33;12.67;;;;;-147.70;100.00;61350.09;5068113;28;45459;-67
2023/07/20 10:21:17;;;;;;;;;21.00;19.00;;;;;-147.70;100.00;61350.09;5065885;28;45466;-67
2023/07/20 10:23:43;;;;;;;;;24.00;23.33;;;;;-147.70;100.00;61350.09;5068550;28;45358;-67
2023/07/20 10:26:10;;;;;;;;;14.67;14.33;;;;;-147.70;100.00;61350.09;5056060;28;45437;-67
2023/07/20 10:28:38;;;;;;;;;12.00;12.00;;;;;-147.70;100.00;61350.09;5059629;28;46229;-66
2023/07/20 10:31:03;;;;;;;;;16.67;12.33;;;;;-147.70;100.00;61350.09;5061370;28;45357;-67
2023/07/20 10:33:30;;;;;;;;;15.00;14.00;;;;;-147.70;100.00;61350.09;5065554;28;45810;-67
2023/07/20 10:36:06;;;;;;;;;15.00;11.33;;;;;-147.70;100.00;61350.09;5076605;28;45587;-67
2023/07/20 10:38:47;;;;;;;;;15.00;13.33;;;;;-147.70;100.00;61350.09;5070482;28;48202;-66
2023/07/20 10:41:21;;;;;;;;;12.67;11.33;;;;;-147.70;100.00;61350.09;5074218;28;45417;-66
2023/07/20 10:43:48;;;;;;;;;12.67;12.00;;;;;-147.70;100.00;61350.09;5075657;28;45583;-67
2023/07/20 10:46:13;;;;;;;;;11.67;11.67;;;;;-147.70;100.00;61350.09;5069489;28;45412;-66
2023/07/20 10:49:02;;;;;;;;;12.00;12.00;;;;;-147.70;100.00;61350.09;5069552;28;45451;-66
2023/07/20 10:51:28;;;;;;;;;12.67;10.00;;;;;-147.70;100.00;61350.09;5061964;28;45586;-66
2023/07/20 10:53:56;;;;;;;;;14.33;9.00;;;;;-147.70;100.00;61350.09;5067964;28;46525;-66
2023/07/20 10:56:25;;;;;;;;;10.00;10.00;;;;;-147.70;100.00;61350.09;5075612;28;45495;-66
2023/07/20 10:58:56;;;;;;;;;14.00;10.33;;;;;-147.70;100.00;61350.09;5068557;27;45538;-66